Time;durP1;ratioP1;P1;durP2;ratioP2;P2;SDS_P1;SDS_P2;PMS_P1;PMS_P2;Temp;Humidity;BMP_temperature;BMP_pressure;BME280_temperature;BME280_humidity;BME280_pressure;Samples;Min_cycle;Max_cycle;Signal;HPM_P1;HPM_P2
2022/03/12 00:01:21;;;;;;;11.23;6.47;;;;;;;;;;5075629;28;20206;-76
2022/03/12 00:03:53;;;;;;;7.37;5.87;;;;;;;;;;5075067;28;20225;-76
2022/03/12 00:06:23;;;;;;;7.87;6.27;;;;;;;;;;5077191;28;20222;-77
2022/03/12 00:08:53;;;;;;;10.53;6.57;;;;;;;;;;5075560;28;20263;-75
2022/03/12 00:11:25;;;;;;;7.73;6.30;;;;;;;;;;5075300;28;20288;-76
2022/03/12 00:13:54;;;;;;;10.77;6.63;;;;;;;;;;5077092;28;20194;-75
2022/03/12 00:16:23;;;;;;;10.37;7.07;;;;;;;;;;5075060;28;20287;-74
2022/03/12 00:18:55;;;;;;;11.00;6.90;;;;;;;;;;5075136;28;20209;-75
2022/03/12 00:21:23;;;;;;;10.23;6.67;;;;;;;;;;5092618;28;20250;-76
2022/03/12 00:23:53;;;;;;;8.87;6.77;;;;;;;;;;5094778;28;20212;-76
2022/03/12 00:26:23;;;;;;;9.67;6.60;;;;;;;;;;5075390;28;20642;-75
2022/03/12 00:28:54;;;;;;;10.97;6.70;;;;;;;;;;5074750;28;20300;-77
2022/03/12 00:31:22;;;;;;;9.00;6.30;;;;;;;;;;5084269;28;20236;-75
2022/03/12 00:33:51;;;;;;;9.67;6.43;;;;;;;;;;5094594;28;20230;-75
2022/03/12 00:36:21;;;;;;;9.87;6.70;;;;;;;;;;5077446;28;20222;-74
2022/03/12 00:38:50;;;;;;;8.97;6.87;;;;;;;;;;5074427;28;20207;-75
2022/03/12 00:41:18;;;;;;;8.40;6.37;;;;;;;;;;5074214;28;20644;-73
2022/03/12 00:43:47;;;;;;;10.13;6.87;;;;;;;;;;5074261;28;20655;-75
2022/03/12 00:46:15;;;;;;;8.77;6.30;;;;;;;;;;5090980;28;20297;-73
2022/03/12 00:48:44;;;;;;;9.73;6.40;;;;;;;;;;5079156;28;20205;-73
2022/03/12 00:51:12;;;;;;;8.60;6.27;;;;;;;;;;5094241;28;20294;-75
2022/03/12 00:53:42;;;;;;;7.50;5.90;;;;;;;;;;5094366;28;20724;-74
2022/03/12 00:56:11;;;;;;;8.17;6.03;;;;;;;;;;5092485;28;20217;-77
2022/03/12 00:58:45;;;;;;;10.37;6.20;;;;;;;;;;5088310;28;20219;-74
2022/03/12 01:01:14;;;;;;;7.77;6.50;;;;;;;;;;5083176;28;20217;-76
2022/03/12 01:03:43;;;;;;;10.57;6.57;;;;;;;;;;5078561;28;20212;-73
2022/03/12 01:06:14;;;;;;;9.87;6.30;;;;;;;;;;5081422;28;20221;-73
2022/03/12 01:08:44;;;;;;;10.17;6.67;;;;;;;;;;5086310;28;20205;-74
2022/03/12 01:11:13;;;;;;;9.40;6.10;;;;;;;;;;5093088;28;20204;-74
2022/03/12 01:13:41;;;;;;;7.80;6.40;;;;;;;;;;5092904;28;20242;-74
2022/03/12 01:16:09;;;;;;;9.67;5.70;;;;;;;;;;5090723;28;20843;-75
2022/03/12 01:18:39;;;;;;;10.63;6.50;;;;;;;;;;5077416;28;20260;-74
2022/03/12 01:21:10;;;;;;;8.27;6.30;;;;;;;;;;5087580;28;20215;-77
2022/03/12 01:23:39;;;;;;;7.37;6.00;;;;;;;;;;5075351;28;20219;-75
2022/03/12 01:26:11;;;;;;;6.57;5.73;;;;;;;;;;5075612;28;20228;-77
2022/03/12 01:28:39;;;;;;;8.50;5.87;;;;;;;;;;5078568;28;20233;-76
2022/03/12 01:31:07;;;;;;;9.30;6.10;;;;;;;;;;5073269;28;20208;-75
2022/03/12 01:33:36;;;;;;;6.97;5.17;;;;;;;;;;5076725;28;20779;-75
2022/03/12 01:36:05;;;;;;;7.20;5.53;;;;;;;;;;5080737;28;20192;-75
2022/03/12 01:38:35;;;;;;;7.77;5.57;;;;;;;;;;5086488;28;20223;-74
2022/03/12 01:41:06;;;;;;;8.30;5.80;;;;;;;;;;5092820;28;20281;-75
2022/03/12 01:43:37;;;;;;;9.87;5.67;;;;;;;;;;5093443;28;20249;-77
2022/03/12 01:46:10;;;;;;;9.17;5.90;;;;;;;;;;5086747;28;20200;-74
2022/03/12 01:48:42;;;;;;;6.87;5.27;;;;;;;;;;5081756;28;20201;-77
2022/03/12 01:51:10;;;;;;;8.23;5.90;;;;;;;;;;5092926;28;20208;-75
2022/03/12 01:53:39;;;;;;;7.00;5.27;;;;;;;;;;5082611;28;20201;-75
2022/03/12 01:56:08;;;;;;;7.77;5.70;;;;;;;;;;5079812;28;20298;-77
2022/03/12 01:58:38;;;;;;;8.50;5.57;;;;;;;;;;5087454;28;20234;-76
2022/03/12 02:01:06;;;;;;;7.53;5.23;;;;;;;;;;5093000;28;20624;-76
2022/03/12 02:03:36;;;;;;;6.47;4.80;;;;;;;;;;5089897;28;20728;-75
2022/03/12 02:06:05;;;;;;;6.60;5.20;;;;;;;;;;5075098;28;20660;-74
2022/03/12 02:08:33;;;;;;;6.73;5.20;;;;;;;;;;5087763;28;20197;-74
2022/03/12 02:11:02;;;;;;;10.47;5.87;;;;;;;;;;5072694;28;20208;-75
2022/03/12 02:13:34;;;;;;;7.53;5.00;;;;;;;;;;5072859;28;20206;-74
2022/03/12 02:16:07;;;;;;;6.00;5.07;;;;;;;;;;5072973;28;20194;-74
2022/03/12 02:18:36;;;;;;;8.30;5.13;;;;;;;;;;5072555;28;20224;-73
2022/03/12 02:21:05;;;;;;;8.87;5.30;;;;;;;;;;5072604;28;20267;-77
2022/03/12 02:23:46;;;;;;;7.10;5.17;;;;;;;;;;5072453;28;20220;-74
2022/03/12 02:26:15;;;;;;;6.67;4.90;;;;;;;;;;5073780;28;20291;-77
2022/03/12 02:28:45;;;;;;;6.37;4.83;;;;;;;;;;5080034;28;20197;-73
2022/03/12 02:31:14;;;;;;;8.07;5.27;;;;;;;;;;5072702;28;20207;-75
2022/03/12 02:33:44;;;;;;;7.23;5.27;;;;;;;;;;5072193;28;20297;-74
2022/03/12 02:36:13;;;;;;;6.33;4.93;;;;;;;;;;5083600;28;20273;-74
2022/03/12 02:38:42;;;;;;;8.30;5.20;;;;;;;;;;5088665;28;20227;-76
2022/03/12 02:41:12;;;;;;;5.93;4.93;;;;;;;;;;5074368;28;20203;-73
2022/03/12 02:43:44;;;;;;;6.50;4.77;;;;;;;;;;5076836;28;20205;-75
2022/03/12 02:46:14;;;;;;;6.07;5.00;;;;;;;;;;5076363;28;20335;-74
2022/03/12 02:48:43;;;;;;;7.27;4.73;;;;;;;;;;5076545;28;20204;-74
2022/03/12 02:51:12;;;;;;;6.37;4.90;;;;;;;;;;5078028;28;20618;-73
2022/03/12 02:53:41;;;;;;;7.60;5.10;;;;;;;;;;5076750;28;20710;-76
2022/03/12 02:56:09;;;;;;;5.07;4.40;;;;;;;;;;5075763;28;20232;-73
2022/03/12 02:58:39;;;;;;;5.27;4.57;;;;;;;;;;5075613;28;20219;-74
2022/03/12 03:01:08;;;;;;;8.57;5.67;;;;;;;;;;5076357;28;20202;-73
2022/03/12 03:03:43;;;;;;;6.83;4.73;;;;;;;;;;5078884;28;20210;-73
2022/03/12 03:06:15;;;;;;;6.20;4.80;;;;;;;;;;5077581;28;20297;-73
2022/03/12 03:08:45;;;;;;;6.63;4.60;;;;;;;;;;5084225;28;20227;-72
2022/03/12 03:11:16;;;;;;;7.70;5.23;;;;;;;;;;5087118;28;20285;-73
2022/03/12 03:13:48;;;;;;;6.10;4.97;;;;;;;;;;5089907;28;20226;-74
2022/03/12 03:16:21;;;;;;;7.90;5.20;;;;;;;;;;5082494;28;20220;-72
2022/03/12 03:18:52;;;;;;;9.27;5.20;;;;;;;;;;5074771;28;20223;-73
2022/03/12 03:21:23;;;;;;;6.70;4.93;;;;;;;;;;5083423;28;20582;-74
2022/03/12 03:23:53;;;;;;;6.57;5.13;;;;;;;;;;5076955;28;20227;-74
2022/03/12 03:26:22;;;;;;;8.07;5.30;;;;;;;;;;5088367;28;20879;-74
2022/03/12 03:28:52;;;;;;;6.03;4.53;;;;;;;;;;5094440;28;20683;-74
2022/03/12 03:31:20;;;;;;;7.17;4.50;;;;;;;;;;5091136;28;20208;-76
2022/03/12 03:33:49;;;;;;;6.27;4.63;;;;;;;;;;5075832;28;20208;-74
2022/03/12 03:36:18;;;;;;;7.93;4.80;;;;;;;;;;5081704;28;20222;-76
2022/03/12 03:38:47;;;;;;;6.43;4.33;;;;;;;;;;5086708;28;20224;-77
2022/03/12 03:41:15;;;;;;;7.30;4.47;;;;;;;;;;5078234;28;20212;-73
2022/03/12 03:43:46;;;;;;;4.97;4.23;;;;;;;;;;5075713;28;20205;-75
2022/03/12 03:46:18;;;;;;;6.00;4.67;;;;;;;;;;5075666;28;20251;-73
2022/03/12 03:48:47;;;;;;;5.77;4.50;;;;;;;;;;5080449;28;20192;-74
2022/03/12 03:51:16;;;;;;;5.53;4.37;;;;;;;;;;5095094;28;20217;-74
2022/03/12 03:53:44;;;;;;;6.17;4.27;;;;;;;;;;5094186;28;20232;-74
2022/03/12 03:56:13;;;;;;;7.43;4.30;;;;;;;;;;5087738;28;20228;-74
2022/03/12 03:58:41;;;;;;;7.37;4.13;;;;;;;;;;5090399;28;20722;-74
2022/03/12 04:01:12;;;;;;;5.70;4.50;;;;;;;;;;5090114;28;20657;-77
2022/03/12 04:03:48;;;;;;;5.93;4.17;;;;;;;;;;5078652;28;20221;-74
2022/03/12 04:06:17;;;;;;;6.47;4.30;;;;;;;;;;5076064;28;20228;-74
2022/03/12 04:08:45;;;;;;;5.00;4.03;;;;;;;;;;5077513;28;20607;-76
2022/03/12 04:11:16;;;;;;;5.17;4.40;;;;;;;;;;5077081;28;20205;-74
2022/03/12 04:13:45;;;;;;;9.33;4.63;;;;;;;;;;5083464;28;20208;-73
2022/03/12 04:16:14;;;;;;;5.57;4.07;;;;;;;;;;5095403;28;20285;-73
2022/03/12 04:18:45;;;;;;;6.63;4.30;;;;;;;;;;5090650;28;20220;-75
2022/03/12 04:21:14;;;;;;;8.03;4.50;;;;;;;;;;5081877;28;20250;-75
2022/03/12 04:23:43;;;;;;;6.00;4.17;;;;;;;;;;5089204;28;20257;-73
2022/03/12 04:26:11;;;;;;;6.30;4.00;;;;;;;;;;5081984;28;20227;-73
2022/03/12 04:28:40;;;;;;;5.10;4.00;;;;;;;;;;5075483;28;20562;-74
2022/03/12 04:31:09;;;;;;;5.10;3.87;;;;;;;;;;5074760;28;20220;-73
2022/03/12 04:33:38;;;;;;;4.67;3.80;;;;;;;;;;5091444;28;20262;-77
2022/03/12 04:36:09;;;;;;;5.63;4.07;;;;;;;;;;5081191;28;20564;-75
2022/03/12 04:38:38;;;;;;;6.53;4.20;;;;;;;;;;5089881;28;20213;-76
2022/03/12 04:41:08;;;;;;;6.03;3.80;;;;;;;;;;5074184;28;20202;-75
2022/03/12 04:43:38;;;;;;;6.70;3.70;;;;;;;;;;5074063;28;20210;-72
2022/03/12 04:46:06;;;;;;;5.47;3.77;;;;;;;;;;5092661;28;20208;-75
2022/03/12 04:48:35;;;;;;;5.07;3.67;;;;;;;;;;5093521;28;20236;-76
2022/03/12 04:51:03;;;;;;;5.37;4.07;;;;;;;;;;5080697;28;20550;-73
2022/03/12 04:53:33;;;;;;;5.77;3.80;;;;;;;;;;5077775;28;20205;-75
2022/03/12 04:56:01;;;;;;;4.43;3.60;;;;;;;;;;5090137;28;20214;-76
2022/03/12 04:58:30;;;;;;;4.90;3.90;;;;;;;;;;5082097;28;20207;-73
2022/03/12 05:00:58;;;;;;;5.93;4.20;;;;;;;;;;5074217;28;20222;-73
2022/03/12 05:03:27;;;;;;;4.53;3.83;;;;;;;;;;5076160;28;20213;-75
2022/03/12 05:06:02;;;;;;;4.50;3.70;;;;;;;;;;5075309;28;20588;-76
2022/03/12 05:08:35;;;;;;;5.60;3.80;;;;;;;;;;5088247;28;20216;-74
2022/03/12 05:11:05;;;;;;;5.80;3.80;;;;;;;;;;5073676;28;20196;-75
2022/03/12 05:13:34;;;;;;;4.87;3.90;;;;;;;;;;5075224;28;20209;-76
2022/03/12 05:16:06;;;;;;;8.60;4.10;;;;;;;;;;5090314;28;20247;-74
2022/03/12 05:18:36;;;;;;;5.03;4.07;;;;;;;;;;5090142;28;20615;-72
2022/03/12 05:21:05;;;;;;;5.40;4.00;;;;;;;;;;5093650;28;20628;-74
2022/03/12 05:23:34;;;;;;;5.40;3.90;;;;;;;;;;5088349;28;20259;-76
2022/03/12 05:26:03;;;;;;;7.10;3.90;;;;;;;;;;5086469;28;20210;-73
2022/03/12 05:28:33;;;;;;;4.20;3.27;;;;;;;;;;5075787;28;20256;-75
2022/03/12 05:31:04;;;;;;;5.83;4.20;;;;;;;;;;5079042;28;20195;-74
2022/03/12 05:33:34;;;;;;;5.30;3.73;;;;;;;;;;5087193;28;20210;-75
2022/03/12 05:36:03;;;;;;;5.93;3.70;;;;;;;;;;5080738;28;20206;-73
2022/03/12 05:38:34;;;;;;;6.27;3.87;;;;;;;;;;5084961;28;20215;-73
2022/03/12 05:41:05;;;;;;;6.47;3.73;;;;;;;;;;5093342;28;20208;-73
2022/03/12 05:43:41;;;;;;;5.27;3.90;;;;;;;;;;5085569;28;20194;-73
2022/03/12 05:46:10;;;;;;;5.50;4.40;;;;;;;;;;5083384;28;20220;-74
2022/03/12 05:48:38;;;;;;;4.17;3.60;;;;;;;;;;5081830;28;20569;-73
2022/03/12 05:51:08;;;;;;;6.00;4.40;;;;;;;;;;5073442;28;20244;-73
2022/03/12 05:53:38;;;;;;;4.10;3.53;;;;;;;;;;5083433;28;20657;-76
2022/03/12 05:56:07;;;;;;;6.80;3.80;;;;;;;;;;5092952;28;20193;-74
2022/03/12 05:58:38;;;;;;;7.63;4.40;;;;;;;;;;5092885;28;20197;-73
2022/03/12 06:01:07;;;;;;;5.30;3.67;;;;;;;;;;5091464;28;20222;-73
2022/03/12 06:03:36;;;;;;;4.87;4.07;;;;;;;;;;5084955;28;20657;-74
2022/03/12 06:06:05;;;;;;;5.33;4.10;;;;;;;;;;5090154;28;20198;-74
2022/03/12 06:08:34;;;;;;;6.37;4.33;;;;;;;;;;5092638;28;20660;-73
2022/03/12 06:11:03;;;;;;;6.87;4.27;;;;;;;;;;5093100;28;20220;-75
2022/03/12 06:13:32;;;;;;;5.37;3.80;;;;;;;;;;5087534;28;20191;-73
2022/03/12 06:16:04;;;;;;;5.50;3.67;;;;;;;;;;5079937;28;20206;-72
2022/03/12 06:18:34;;;;;;;4.10;3.40;;;;;;;;;;5077858;28;20578;-73
2022/03/12 06:21:04;;;;;;;7.23;4.10;;;;;;;;;;5073030;28;20751;-74
2022/03/12 06:23:34;;;;;;;8.37;4.07;;;;;;;;;;5072943;28;20226;-74
2022/03/12 06:26:04;;;;;;;5.77;4.03;;;;;;;;;;5073114;28;20206;-75
2022/03/12 06:28:37;;;;;;;5.93;4.13;;;;;;;;;;5072829;28;20199;-75
2022/03/12 06:31:07;;;;;;;5.30;4.00;;;;;;;;;;5072864;28;20194;-73
2022/03/12 06:33:36;;;;;;;6.57;4.00;;;;;;;;;;5072985;28;20230;-76
2022/03/12 06:36:05;;;;;;;5.23;3.87;;;;;;;;;;5081181;28;20197;-74
2022/03/12 06:38:35;;;;;;;5.17;3.60;;;;;;;;;;5078863;28;20668;-75
2022/03/12 06:41:04;;;;;;;5.57;4.30;;;;;;;;;;5072775;28;20230;-75
2022/03/12 06:43:33;;;;;;;5.17;4.00;;;;;;;;;;5072583;28;20207;-74
2022/03/12 06:46:02;;;;;;;6.10;4.00;;;;;;;;;;5080248;28;20202;-75
2022/03/12 06:48:32;;;;;;;5.43;3.60;;;;;;;;;;5082180;28;20259;-76
2022/03/12 06:51:01;;;;;;;4.97;4.00;;;;;;;;;;5072073;28;20202;-73
2022/03/12 06:53:30;;;;;;;5.53;4.17;;;;;;;;;;5091540;28;20661;-76
2022/03/12 06:55:59;;;;;;;4.73;4.10;;;;;;;;;;5088598;28;20212;-74
2022/03/12 06:58:29;;;;;;;5.30;4.33;;;;;;;;;;5081356;28;20194;-74
2022/03/12 07:00:58;;;;;;;4.43;3.87;;;;;;;;;;5092995;28;20258;-74
2022/03/12 07:03:27;;;;;;;6.13;4.07;;;;;;;;;;5073434;28;20218;-75
2022/03/12 07:05:57;;;;;;;6.47;4.20;;;;;;;;;;5088118;28;20191;-73
2022/03/12 07:08:25;;;;;;;5.03;4.20;;;;;;;;;;5092796;28;20207;-75
2022/03/12 07:10:54;;;;;;;4.33;3.80;;;;;;;;;;5091285;28;20236;-75
2022/03/12 07:13:23;;;;;;;6.33;4.27;;;;;;;;;;5083963;28;20196;-73
2022/03/12 07:15:51;;;;;;;6.13;4.53;;;;;;;;;;5077156;28;20204;-75
2022/03/12 07:18:20;;;;;;;6.23;4.70;;;;;;;;;;5086009;28;20201;-74
2022/03/12 07:20:48;;;;;;;4.67;4.03;;;;;;;;;;5082128;28;20673;-76
2022/03/12 07:23:19;;;;;;;5.83;4.47;;;;;;;;;;5077935;28;20648;-74
2022/03/12 07:25:48;;;;;;;6.60;4.03;;;;;;;;;;5074965;28;20210;-74
2022/03/12 07:28:19;;;;;;;5.30;3.77;;;;;;;;;;5082598;28;20246;-76
2022/03/12 07:30:47;;;;;;;6.37;4.67;;;;;;;;;;5095507;28;20672;-75
2022/03/12 07:33:16;;;;;;;6.80;4.33;;;;;;;;;;5075795;28;20203;-74
2022/03/12 07:35:45;;;;;;;7.07;4.70;;;;;;;;;;5075512;28;20206;-75
2022/03/12 07:38:14;;;;;;;5.60;4.03;;;;;;;;;;5088149;28;20198;-78
2022/03/12 07:40:43;;;;;;;5.30;4.07;;;;;;;;;;5093009;28;20224;-74
2022/03/12 07:43:12;;;;;;;6.53;5.03;;;;;;;;;;5087005;28;20205;-75
2022/03/12 07:45:41;;;;;;;6.80;4.83;;;;;;;;;;5082798;28;20210;-75
2022/03/12 07:48:12;;;;;;;4.80;4.23;;;;;;;;;;5075754;28;20246;-75
2022/03/12 07:51:01;;;;;;;6.70;4.67;;;;;;;;;;5089865;28;20649;-74
2022/03/12 07:53:30;;;;;;;5.23;4.20;;;;;;;;;;5093897;28;20224;-76
2022/03/12 07:56:00;;;;;;;7.73;5.00;;;;;;;;;;5090395;28;20198;-76
2022/03/12 07:58:29;;;;;;;7.10;4.67;;;;;;;;;;5094546;28;20227;-77
2022/03/12 08:00:58;;;;;;;6.10;4.93;;;;;;;;;;5075646;28;20222;-76
2022/03/12 08:03:28;;;;;;;5.40;4.63;;;;;;;;;;5092619;28;20213;-75
2022/03/12 08:05:58;;;;;;;6.67;4.60;;;;;;;;;;5079807;28;20201;-74
2022/03/12 08:08:26;;;;;;;6.90;4.60;;;;;;;;;;5075416;28;20202;-73
2022/03/12 08:13:44;;;;;;;5.60;4.60;;;;;;;;;;5088304;28;20197;-75
2022/03/12 08:16:13;;;;;;;5.20;4.43;;;;;;;;;;5078074;28;20218;-77
2022/03/12 08:18:42;;;;;;;5.57;4.77;;;;;;;;;;5075028;28;20203;-75
2022/03/12 08:21:12;;;;;;;5.60;4.90;;;;;;;;;;5081146;28;20650;-73
2022/03/12 08:23:40;;;;;;;7.13;4.80;;;;;;;;;;5095542;28;20229;-74
2022/03/12 08:26:09;;;;;;;7.60;5.00;;;;;;;;;;5089320;28;20271;-74
2022/03/12 08:28:37;;;;;;;6.57;5.23;;;;;;;;;;5083680;28;20267;-74
2022/03/12 08:31:07;;;;;;;6.40;5.07;;;;;;;;;;5078096;28;20198;-75
2022/03/12 08:33:37;;;;;;;5.40;4.77;;;;;;;;;;5079467;28;20561;-77
2022/03/12 08:36:06;;;;;;;6.70;5.30;;;;;;;;;;5086787;28;20657;-75
2022/03/12 08:38:35;;;;;;;8.07;5.40;;;;;;;;;;5089760;28;20267;-78
2022/03/12 08:41:05;;;;;;;5.43;4.60;;;;;;;;;;5074985;28;20689;-76
2022/03/12 08:43:33;;;;;;;6.33;4.90;;;;;;;;;;5089877;28;20580;-75
2022/03/12 08:46:03;;;;;;;6.10;4.90;;;;;;;;;;5092601;28;20197;-74
2022/03/12 08:48:34;;;;;;;7.23;5.40;;;;;;;;;;5094888;28;20221;-75
2022/03/12 08:51:03;;;;;;;7.37;5.17;;;;;;;;;;5094230;28;20205;-76
2022/03/12 08:53:32;;;;;;;6.73;4.93;;;;;;;;;;5093999;28;20210;-74
2022/03/12 08:56:01;;;;;;;7.37;4.80;;;;;;;;;;5089122;28;20203;-76
2022/03/12 08:58:30;;;;;;;7.90;4.93;;;;;;;;;;5077928;28;20198;-75
2022/03/12 09:00:58;;;;;;;5.47;4.53;;;;;;;;;;5089460;28;20586;-75
2022/03/12 09:03:28;;;;;;;6.93;4.70;;;;;;;;;;5073295;28;20301;-75
2022/03/12 09:05:58;;;;;;;5.63;5.03;;;;;;;;;;5073897;28;20203;-76
2022/03/12 09:08:29;;;;;;;5.30;4.77;;;;;;;;;;5149690;22;20248;-78
2022/03/12 09:10:59;;;;;;;6.30;4.87;;;;;;;;;;5091779;22;20239;-76
2022/03/12 09:13:27;;;;;;;5.67;5.03;;;;;;;;;;5091411;28;20202;-77
2022/03/12 09:15:57;;;;;;;7.77;4.43;;;;;;;;;;5092731;28;20206;-77
2022/03/12 09:18:26;;;;;;;5.07;4.53;;;;;;;;;;5085650;28;20211;-75
2022/03/12 09:20:54;;;;;;;7.03;4.50;;;;;;;;;;5091458;28;20643;-77
2022/03/12 09:23:24;;;;;;;8.67;5.07;;;;;;;;;;5092806;28;20217;-75
2022/03/12 09:25:53;;;;;;;5.13;4.63;;;;;;;;;;5092977;28;20206;-76
2022/03/12 09:28:22;;;;;;;5.50;4.90;;;;;;;;;;5081444;28;20204;-78
2022/03/12 09:30:51;;;;;;;6.37;5.07;;;;;;;;;;5095238;28;20608;-78
2022/03/12 09:33:21;;;;;;;5.30;4.40;;;;;;;;;;5092949;28;20213;-78
2022/03/12 09:35:49;;;;;;;6.33;4.90;;;;;;;;;;5093082;28;20250;-78
2022/03/12 09:38:18;;;;;;;6.30;4.90;;;;;;;;;;5094647;28;20205;-79
2022/03/12 09:40:48;;;;;;;6.60;4.93;;;;;;;;;;5094549;28;20231;-79
2022/03/12 09:43:16;;;;;;;5.30;4.80;;;;;;;;;;5081949;28;20572;-79
2022/03/12 09:45:44;;;;;;;6.43;5.03;;;;;;;;;;5096042;28;20197;-80
2022/03/12 09:48:19;;;;;;;5.67;4.77;;;;;;;;;;5095106;28;20284;-78
2022/03/12 09:50:48;;;;;;;7.67;4.80;;;;;;;;;;5093714;28;20213;-77
2022/03/12 09:53:16;;;;;;;5.23;4.73;;;;;;;;;;5095251;28;20205;-79
2022/03/12 09:55:45;;;;;;;6.13;5.17;;;;;;;;;;5094221;28;20205;-78
2022/03/12 09:58:15;;;;;;;6.63;5.13;;;;;;;;;;5081128;28;20209;-79
2022/03/12 10:00:44;;;;;;;8.60;4.93;;;;;;;;;;5086801;28;20217;-80
2022/03/12 10:03:12;;;;;;;7.57;5.13;;;;;;;;;;5094880;28;20225;-79
2022/03/12 10:05:41;;;;;;;7.77;5.23;;;;;;;;;;5092857;28;20209;-79
2022/03/12 10:08:10;;;;;;;7.47;5.73;;;;;;;;;;5089020;28;20222;-78
2022/03/12 10:10:38;;;;;;;5.70;5.13;;;;;;;;;;5088049;28;20222;-77
2022/03/12 10:13:06;;;;;;;7.90;5.13;;;;;;;;;;5087770;28;20202;-79
2022/03/12 10:15:36;;;;;;;7.27;5.67;;;;;;;;;;5095350;28;20267;-80
2022/03/12 10:18:06;;;;;;;6.93;5.60;;;;;;;;;;5095831;28;20217;-79
2022/03/12 10:20:34;;;;;;;6.87;5.53;;;;;;;;;;5091378;28;20201;-78
2022/03/12 10:23:03;;;;;;;8.17;5.57;;;;;;;;;;5092762;28;20282;-78
2022/03/12 10:25:33;;;;;;;7.37;5.70;;;;;;;;;;5092816;28;20198;-79
2022/03/12 10:28:01;;;;;;;7.47;5.33;;;;;;;;;;5091166;28;20214;-77
2022/03/12 10:30:30;;;;;;;6.23;5.63;;;;;;;;;;5084430;28;20260;-78
2022/03/12 10:32:59;;;;;;;8.13;5.53;;;;;;;;;;5092411;28;20202;-79
2022/03/12 10:35:33;;;;;;;7.10;5.50;;;;;;;;;;5087150;28;20198;-78
2022/03/12 10:38:02;;;;;;;7.87;6.13;;;;;;;;;;5083442;28;20214;-79
2022/03/12 10:40:31;;;;;;;6.00;5.40;;;;;;;;;;5090984;28;20206;-77
2022/03/12 10:43:03;;;;;;;7.43;5.50;;;;;;;;;;5084359;28;20210;-79
2022/03/12 10:45:33;;;;;;;6.93;5.67;;;;;;;;;;5082228;28;20267;-77
2022/03/12 10:48:04;;;;;;;7.23;5.43;;;;;;;;;;5084137;28;20221;-78
2022/03/12 10:50:34;;;;;;;5.93;5.30;;;;;;;;;;5085178;28;20202;-77
2022/03/12 10:53:05;;;;;;;8.57;5.73;;;;;;;;;;5088068;28;20736;-80
2022/03/12 10:55:37;;;;;;;8.57;5.67;;;;;;;;;;5087041;28;20194;-77
2022/03/12 10:58:07;;;;;;;7.63;5.90;;;;;;;;;;5088028;28;20221;-78
2022/03/12 11:00:37;;;;;;;7.23;5.73;;;;;;;;;;5091014;28;20718;-79
2022/03/12 11:03:12;;;;;;;6.77;5.93;;;;;;;;;;5093432;28;20210;-78
2022/03/12 11:05:43;;;;;;;8.47;5.70;;;;;;;;;;5094451;28;20334;-77
2022/03/12 11:08:16;;;;;;;7.40;5.73;;;;;;;;;;5096948;28;20331;-78
2022/03/12 11:10:46;;;;;;;8.70;6.00;;;;;;;;;;5083121;28;20215;-79
2022/03/12 11:13:26;;;;;;;8.87;5.83;;;;;;;;;;5092005;28;20194;-77
2022/03/12 11:16:15;;;;;;;6.60;5.93;;;;;;;;;;5083991;28;20205;-78
2022/03/12 11:19:12;;;;;;;6.57;5.70;;;;;;;;;;5082980;28;20229;-78
2022/03/12 11:21:46;;;;;;;7.73;5.97;;;;;;;;;;5062857;28;20205;-77
2022/03/12 11:24:16;;;;;;;6.90;6.20;;;;;;;;;;5098820;28;20222;-77
2022/03/12 11:26:46;;;;;;;6.77;5.53;;;;;;;;;;5078300;28;20280;-77
2022/03/12 11:29:15;;;;;;;6.57;5.90;;;;;;;;;;5092349;28;20679;-78
2022/03/12 11:31:45;;;;;;;7.47;5.80;;;;;;;;;;5101987;28;20198;-78
2022/03/12 11:34:20;;;;;;;6.70;5.70;;;;;;;;;;5101738;28;20672;-79
2022/03/12 11:37:05;;;;;;;6.57;5.87;;;;;;;;;;5101866;28;20327;-76
2022/03/12 11:39:36;;;;;;;7.03;6.23;;;;;;;;;;5101545;28;20209;-78
2022/03/12 11:42:09;;;;;;;6.90;6.20;;;;;;;;;;5102335;28;20202;-77
2022/03/12 11:44:38;;;;;;;7.97;6.43;;;;;;;;;;5102438;28;20229;-78
2022/03/12 11:47:07;;;;;;;9.90;6.50;;;;;;;;;;5104594;28;20229;-77
2022/03/12 11:49:36;;;;;;;6.90;6.20;;;;;;;;;;5101815;28;20710;-78
2022/03/12 11:52:06;;;;;;;7.40;6.43;;;;;;;;;;5091761;28;20211;-78
2022/03/12 11:54:42;;;;;;;7.30;6.50;;;;;;;;;;5098046;28;20190;-79
2022/03/12 11:57:11;;;;;;;7.47;6.40;;;;;;;;;;5089698;28;20260;-78
2022/03/12 11:59:40;;;;;;;8.73;6.30;;;;;;;;;;5090477;28;20202;-80
2022/03/12 12:02:26;;;;;;;7.57;6.87;;;;;;;;;;5097625;28;20212;-78
2022/03/12 12:04:56;;;;;;;7.63;6.83;;;;;;;;;;5094422;28;20194;-79
2022/03/12 12:07:27;;;;;;;11.03;8.87;;;;;;;;;;5097593;28;20228;-78
2022/03/12 12:09:56;;;;;;;9.10;8.10;;;;;;;;;;5091018;28;20209;-77
2022/03/12 12:12:27;;;;;;;10.47;8.47;;;;;;;;;;5089135;28;20201;-78
2022/03/12 12:14:56;;;;;;;10.70;7.03;;;;;;;;;;5091819;28;20197;-78
2022/03/12 12:17:24;;;;;;;8.17;7.37;;;;;;;;;;5098114;28;20233;-78
2022/03/12 12:19:53;;;;;;;8.00;7.20;;;;;;;;;;5098259;28;20198;-79
2022/03/12 12:22:21;;;;;;;8.20;7.37;;;;;;;;;;5098393;28;20202;-77
2022/03/12 12:24:53;;;;;;;7.47;6.77;;;;;;;;;;5096414;28;20613;-78
2022/03/12 12:27:23;;;;;;;10.37;7.63;;;;;;;;;;5103992;28;20233;-78
2022/03/12 12:29:54;;;;;;;10.37;7.80;;;;;;;;;;5102692;28;20201;-77
2022/03/12 12:32:24;;;;;;;9.13;7.80;;;;;;;;;;5101549;28;20198;-78
2022/03/12 12:34:59;;;;;;;8.13;7.33;;;;;;;;;;5099592;28;20194;-79
2022/03/12 12:37:41;;;;;;;9.77;7.30;;;;;;;;;;5102133;28;20247;-78
2022/03/12 12:40:31;;;;;;;8.83;7.93;;;;;;;;;;5101084;28;20223;-79
2022/03/12 12:43:05;;;;;;;7.93;7.13;;;;;;;;;;5098572;28;20209;-77
2022/03/12 12:45:37;;;;;;;9.23;7.97;;;;;;;;;;5104583;28;20204;-77
2022/03/12 12:48:09;;;;;;;8.60;7.70;;;;;;;;;;5089702;28;20222;-77
2022/03/12 12:50:38;;;;;;;8.57;7.70;;;;;;;;;;5098594;28;20210;-77
2022/03/12 12:53:11;;;;;;;9.37;7.33;;;;;;;;;;5102361;28;20224;-79
2022/03/12 12:55:39;;;;;;;8.73;7.83;;;;;;;;;;5104616;28;20713;-77
2022/03/12 12:58:10;;;;;;;10.53;7.57;;;;;;;;;;5095373;28;20757;-77
2022/03/12 13:00:39;;;;;;;9.47;7.73;;;;;;;;;;4749972;28;9999842;-78
2022/03/12 13:03:15;;;;;;;11.70;7.90;;;;;;;;;;5100866;28;20198;-77
2022/03/12 13:05:49;;;;;;;8.70;7.80;;;;;;;;;;5100952;28;20227;-77
2022/03/12 13:08:22;;;;;;;8.40;7.60;;;;;;;;;;5087441;28;20207;-79
2022/03/12 13:10:52;;;;;;;9.17;7.70;;;;;;;;;;5087730;28;20249;-78
2022/03/12 13:13:23;;;;;;;8.10;7.30;;;;;;;;;;5099392;28;20190;-79
2022/03/12 13:15:53;;;;;;;9.93;7.60;;;;;;;;;;5095523;28;20183;-79
2022/03/12 13:18:38;;;;;;;9.23;7.17;;;;;;;;;;5090955;28;20661;-79
2022/03/12 13:21:26;;;;;;;8.93;7.97;;;;;;;;;;5075668;28;20210;-79
2022/03/12 13:23:54;;;;;;;8.77;7.77;;;;;;;;;;5102363;28;20206;-80
2022/03/12 13:26:26;;;;;;;8.40;7.50;;;;;;;;;;5092943;28;20218;-78
2022/03/12 13:28:58;;;;;;;8.83;7.67;;;;;;;;;;5092485;28;20641;-79
2022/03/12 13:31:29;;;;;;;8.10;7.13;;;;;;;;;;5088992;28;20208;-78
2022/03/12 13:34:07;;;;;;;7.83;7.03;;;;;;;;;;5097457;28;20229;-80
2022/03/12 13:36:38;;;;;;;9.03;7.60;;;;;;;;;;5094594;28;20715;-78
2022/03/12 13:39:08;;;;;;;10.17;7.57;;;;;;;;;;5091077;28;20202;-79
2022/03/12 13:41:36;;;;;;;8.93;7.43;;;;;;;;;;5089561;28;20254;-80
2022/03/12 13:44:06;;;;;;;10.40;7.27;;;;;;;;;;5103156;28;20233;-79
2022/03/12 13:46:35;;;;;;;8.57;7.50;;;;;;;;;;5093965;28;20225;-79
2022/03/12 13:49:08;;;;;;;8.37;7.47;;;;;;;;;;5092889;28;20564;-79
2022/03/12 13:51:40;;;;;;;8.47;7.30;;;;;;;;;;5094887;28;20201;-80
2022/03/12 13:54:09;;;;;;;8.57;7.20;;;;;;;;;;5088248;28;20199;-80
2022/03/12 13:56:40;;;;;;;7.60;6.80;;;;;;;;;;5094486;28;20670;-79
2022/03/12 13:59:12;;;;;;;11.57;7.17;;;;;;;;;;5094915;28;20208;-81
2022/03/12 14:01:42;;;;;;;9.50;7.30;;;;;;;;;;5089986;28;20198;-80
2022/03/12 14:04:18;;;;;;;9.57;7.70;;;;;;;;;;5089586;28;20283;-79
2022/03/12 14:07:14;;;;;;;10.10;7.50;;;;;;;;;;5095711;28;20848;-78
2022/03/12 14:09:46;;;;;;;8.40;7.37;;;;;;;;;;5101454;28;20216;-78
2022/03/12 14:12:20;;;;;;;8.93;7.73;;;;;;;;;;5101759;28;20301;-79
2022/03/12 14:14:50;;;;;;;9.80;7.63;;;;;;;;;;5096045;28;20197;-79
2022/03/12 14:17:27;;;;;;;8.10;7.27;;;;;;;;;;5097093;28;20225;-78
2022/03/12 14:19:57;;;;;;;9.97;7.43;;;;;;;;;;5093723;28;20221;-79
2022/03/12 14:22:28;;;;;;;24.53;8.93;;;;;;;;;;5088767;28;20653;-79
2022/03/12 14:25:04;;;;;;;12.03;8.50;;;;;;;;;;5096566;28;20249;-79
2022/03/12 14:27:33;;;;;;;8.50;7.57;;;;;;;;;;5097500;28;20218;-78
2022/03/12 14:30:03;;;;;;;8.50;7.70;;;;;;;;;;5086810;28;20197;-79
2022/03/12 14:32:32;;;;;;;10.73;7.77;;;;;;;;;;5090874;28;20224;-79
2022/03/12 14:35:00;;;;;;;10.60;7.97;;;;;;;;;;5090885;28;20203;-78
2022/03/12 14:37:29;;;;;;;11.90;8.00;;;;;;;;;;5092527;28;20221;-78
2022/03/12 14:39:57;;;;;;;11.37;7.87;;;;;;;;;;5099865;28;20248;-79
2022/03/12 14:42:26;;;;;;;12.33;8.13;;;;;;;;;;5101388;28;20201;-78
2022/03/12 14:44:54;;;;;;;9.07;7.43;;;;;;;;;;5098349;28;20230;-78
2022/03/12 14:47:24;;;;;;;8.50;7.03;;;;;;;;;;5091642;28;20229;-78
2022/03/12 14:49:54;;;;;;;8.73;7.47;;;;;;;;;;5092145;28;20218;-79
2022/03/12 14:52:23;;;;;;;8.43;7.30;;;;;;;;;;5100217;28;20201;-79
2022/03/12 14:54:52;;;;;;;8.63;7.33;;;;;;;;;;5101613;28;20228;-80
2022/03/12 14:57:21;;;;;;;9.57;7.53;;;;;;;;;;5101972;28;20251;-80
2022/03/12 14:59:51;;;;;;;8.93;7.07;;;;;;;;;;5094419;28;20202;-77
2022/03/12 15:02:21;;;;;;;7.83;7.03;;;;;;;;;;5100919;28;20205;-77